createdAt,value
2023-01-27T00:00:28.364Z,-2.75
2023-01-27T00:05:53.348Z,-2.74
2023-01-27T00:11:34.367Z,-2.73
2023-01-27T00:16:58.337Z,-2.75
2023-01-27T00:22:44.420Z,-2.72
2023-01-27T00:28:29.368Z,-2.68
2023-01-27T00:40:10.594Z,-2.65
2023-01-27T00:45:59.631Z,-2.63
2023-01-27T00:51:24.376Z,-2.60
2023-01-27T00:56:49.414Z,-2.64
2023-01-27T01:02:17.377Z,-2.56
2023-01-27T17:30:14.760Z,-0.04
2023-01-27T17:35:46.749Z,-0.02
2023-01-27T17:41:12.787Z,-0.01
2023-01-27T17:52:06.791Z,0.02
2023-01-27T17:57:39.803Z,0.04
2023-01-27T18:03:13.779Z,0.04
2023-01-27T18:08:46.785Z,0.06
2023-01-27T18:14:13.821Z,0.10
2023-01-27T18:19:41.882Z,0.10
2023-01-27T18:25:15.069Z,0.10
2023-01-27T18:30:46.792Z,0.12
2023-01-27T18:36:11.922Z,0.13
2023-01-27T18:41:46.880Z,0.14
2023-01-27T18:47:34.916Z,0.16
2023-01-27T18:53:09.889Z,0.17
2023-01-27T18:58:39.910Z,0.16
2023-01-27T19:04:06.886Z,0.17
2023-01-27T19:09:36.101Z,0.15
2023-01-27T19:15:05.859Z,0.17
2023-01-27T19:20:34.172Z,0.14
2023-01-27T19:26:04.006Z,0.15
2023-01-27T19:31:39.866Z,0.17
2023-01-27T19:37:06.895Z,0.20
2023-01-27T19:42:35.147Z,0.20
2023-01-27T19:48:06.880Z,0.20
2023-01-27T19:53:35.207Z,0.19
2023-01-27T19:59:01.857Z,0.16
2023-01-27T20:04:34.291Z,0.15
2023-01-27T20:15:21.065Z,0.15
2023-01-27T20:20:57.195Z,0.15
2023-01-27T20:26:22.574Z,0.14
2023-01-27T20:31:55.941Z,0.14
2023-01-27T20:37:27.857Z,0.12
2023-01-27T20:42:53.975Z,0.12
2023-01-27T20:48:35.853Z,0.11
2023-01-27T20:54:09.183Z,0.11
2023-01-27T21:05:28.062Z,0.04
2023-01-27T21:11:27.935Z,0.03
2023-01-27T21:17:11.035Z,0.01
2023-01-27T21:22:44.871Z,0.00
2023-01-27T21:28:12.962Z,0.00
2023-01-27T21:39:27.993Z,-0.01
2023-01-27T21:45:20.940Z,0.02
2023-01-27T21:50:57.946Z,-0.01
2023-01-27T21:56:34.980Z,0.01
2023-01-27T22:02:21.156Z,0.02
2023-01-27T22:08:06.068Z,0.00
2023-01-27T22:13:53.137Z,0.01
2023-01-27T22:19:48.357Z,0.05
2023-01-27T22:30:56.969Z,0.05
2023-01-27T22:36:26.002Z,0.06
2023-01-27T22:41:53.986Z,0.07
2023-01-27T22:47:29.960Z,0.08
2023-01-27T22:53:16.224Z,0.06
2023-01-27T23:04:33.935Z,0.03
2023-01-27T23:10:10.025Z,0.01
2023-01-27T23:15:34.938Z,0.06
2023-01-27T23:27:01.237Z,0.02
2023-01-27T23:37:56.320Z,0.05
2023-01-27T23:43:27.952Z,0.05
2023-01-27T23:49:00.157Z,0.06
2023-01-27T23:54:31.419Z,0.04
